Time;durP1;ratioP1;P1;durP2;ratioP2;P2;SDS_P1;SDS_P2;PMS_P1;PMS_P2;Temp;Humidity;BMP_temperature;BMP_pressure;BME280_temperature;BME280_humidity;BME280_pressure;Samples;Min_cycle;Max_cycle;Signal;HPM_P1;HPM_P2
2021/01/13 00:00:00;;;;;;;33.97;31.42;;;;;;;;;;5055857;28;20196;-76
2021/01/13 00:02:28;;;;;;;35.42;32.63;;;;;;;;;;5056126;28;20261;-76
2021/01/13 00:04:55;;;;;;;35.08;32.63;;;;;;;;;;5056090;28;20219;-76
2021/01/13 00:07:22;;;;;;;35.28;31.92;;;;;;;;;;5055650;28;20200;-76
2021/01/13 00:09:49;;;;;;;34.40;31.80;;;;;;;;;;5055759;28;20239;-76
2021/01/13 00:12:16;;;;;;;34.85;31.83;;;;;;;;;;5055955;28;20188;-76
2021/01/13 00:14:43;;;;;;;30.25;27.73;;;;;;;;;;5055478;28;20235;-75
2021/01/13 00:17:10;;;;;;;30.45;28.13;;;;;;;;;;5055929;28;20238;-76
2021/01/13 00:19:38;;;;;;;31.00;28.15;;;;;;;;;;5055952;28;20208;-76
2021/01/13 00:22:05;;;;;;;30.50;27.40;;;;;;;;;;5055773;28;20196;-76
2021/01/13 00:24:32;;;;;;;30.13;27.73;;;;;;;;;;5055395;28;20634;-76
2021/01/13 00:26:59;;;;;;;28.65;26.30;;;;;;;;;;5055362;28;20200;-76
2021/01/13 00:29:26;;;;;;;31.00;28.80;;;;;;;;;;5055288;28;20700;-76
2021/01/13 00:31:56;;;;;;;31.55;28.70;;;;;;;;;;5055558;28;20192;-76
2021/01/13 00:34:23;;;;;;;30.30;27.85;;;;;;;;;;5037483;28;20567;-76
2021/01/13 00:36:51;;;;;;;28.63;26.48;;;;;;;;;;5055193;28;20193;-76
2021/01/13 00:39:18;;;;;;;29.17;26.98;;;;;;;;;;5055208;28;20192;-76
2021/01/13 00:41:45;;;;;;;30.63;28.05;;;;;;;;;;5055028;28;20546;-76
2021/01/13 00:44:12;;;;;;;30.52;28.25;;;;;;;;;;5055279;28;20188;-76
2021/01/13 00:46:39;;;;;;;30.38;27.10;;;;;;;;;;5055042;28;20665;-76
2021/01/13 00:49:07;;;;;;;31.52;28.75;;;;;;;;;;5054857;28;20220;-76
2021/01/13 00:51:38;;;;;;;33.40;30.15;;;;;;;;;;5054826;28;20202;-76
2021/01/13 00:54:06;;;;;;;27.98;25.98;;;;;;;;;;5037382;28;20638;-76
2021/01/13 00:56:33;;;;;;;29.88;27.67;;;;;;;;;;5055127;28;20211;-76
2021/01/13 00:59:00;;;;;;;30.30;28.15;;;;;;;;;;5054813;28;20553;-76
2021/01/13 01:01:28;;;;;;;32.15;29.15;;;;;;;;;;5054991;28;20195;-76
2021/01/13 01:03:54;;;;;;;33.58;30.13;;;;;;;;;;5054830;28;20207;-76
2021/01/13 01:06:21;;;;;;;29.08;26.83;;;;;;;;;;5054926;28;20212;-76
2021/01/13 01:08:48;;;;;;;31.52;28.90;;;;;;;;;;5053869;28;20224;-75
2021/01/13 01:11:18;;;;;;;28.95;26.98;;;;;;;;;;5054698;28;20223;-76
2021/01/13 01:13:45;;;;;;;30.13;27.77;;;;;;;;;;5054439;28;20203;-76
2021/01/13 01:16:12;;;;;;;28.65;26.40;;;;;;;;;;5054687;28;20192;-76
2021/01/13 01:18:39;;;;;;;30.95;27.42;;;;;;;;;;5054376;28;20192;-76
2021/01/13 01:21:08;;;;;;;29.48;26.90;;;;;;;;;;5054579;28;20234;-76
2021/01/13 01:23:35;;;;;;;28.27;26.38;;;;;;;;;;5055329;28;20228;-76
2021/01/13 01:26:02;;;;;;;28.15;26.00;;;;;;;;;;5054243;28;20623;-76
2021/01/13 01:28:30;;;;;;;28.65;26.70;;;;;;;;;;5054089;28;20278;-76
2021/01/13 01:30:57;;;;;;;28.85;26.55;;;;;;;;;;5054106;28;20249;-76
2021/01/13 01:33:23;;;;;;;28.50;26.58;;;;;;;;;;5055057;28;20559;-76
2021/01/13 01:35:51;;;;;;;28.23;26.05;;;;;;;;;;5054781;28;20202;-76
2021/01/13 01:38:17;;;;;;;28.73;26.35;;;;;;;;;;5055222;28;20542;-76
2021/01/13 01:40:44;;;;;;;28.52;25.88;;;;;;;;;;5054131;28;20211;-76
2021/01/13 01:43:11;;;;;;;28.27;25.10;;;;;;;;;;5053818;28;20189;-76
2021/01/13 01:45:39;;;;;;;28.17;25.55;;;;;;;;;;5053853;28;20195;-76
2021/01/13 01:48:14;;;;;;;29.80;27.30;;;;;;;;;;5054162;28;20192;-76
2021/01/13 01:50:41;;;;;;;28.10;26.10;;;;;;;;;;5053939;28;20259;-76
2021/01/13 01:53:12;;;;;;;30.10;27.15;;;;;;;;;;5053719;28;20258;-76
2021/01/13 01:55:43;;;;;;;28.27;25.83;;;;;;;;;;5053712;28;20638;-75
2021/01/13 01:58:11;;;;;;;28.90;26.65;;;;;;;;;;5053616;28;20188;-76
2021/01/13 02:00:39;;;;;;;28.90;26.33;;;;;;;;;;5053800;28;20188;-76
2021/01/13 02:03:11;;;;;;;27.17;24.80;;;;;;;;;;5053660;28;20279;-76
2021/01/13 02:05:38;;;;;;;27.00;24.58;;;;;;;;;;5053914;28;20192;-76
2021/01/13 02:08:05;;;;;;;27.00;24.67;;;;;;;;;;5053518;28;20556;-75
2021/01/13 02:10:32;;;;;;;27.27;25.00;;;;;;;;;;5052968;28;20244;-76
2021/01/13 02:13:07;;;;;;;28.42;25.80;;;;;;;;;;5053617;28;20199;-75
2021/01/13 02:15:34;;;;;;;27.55;25.42;;;;;;;;;;5053363;28;20227;-76
2021/01/13 02:18:04;;;;;;;27.63;25.17;;;;;;;;;;5053406;28;20184;-76
2021/01/13 02:20:33;;;;;;;28.58;26.08;;;;;;;;;;5053446;28;20199;-76
2021/01/13 02:23:04;;;;;;;26.92;24.92;;;;;;;;;;5053551;28;20258;-76
2021/01/13 02:25:45;;;;;;;26.50;24.38;;;;;;;;;;5053743;28;20207;-76
2021/01/13 02:28:15;;;;;;;26.73;24.75;;;;;;;;;;5053680;28;20192;-76
2021/01/13 02:30:44;;;;;;;25.92;24.33;;;;;;;;;;5053164;28;20254;-76
2021/01/13 02:33:23;;;;;;;27.55;25.33;;;;;;;;;;5053311;28;20189;-76
2021/01/13 02:36:02;;;;;;;27.25;24.92;;;;;;;;;;5053616;28;20707;-76
2021/01/13 02:38:32;;;;;;;26.33;24.52;;;;;;;;;;5052993;28;20212;-76
2021/01/13 02:41:00;;;;;;;27.92;24.40;;;;;;;;;;5053212;28;20664;-76
2021/01/13 02:43:29;;;;;;;25.30;23.38;;;;;;;;;;5053418;28;20626;-76
2021/01/13 02:45:58;;;;;;;27.02;25.17;;;;;;;;;;5053367;28;20218;-76
2021/01/13 02:48:26;;;;;;;27.17;25.33;;;;;;;;;;5053222;28;20188;-76
2021/01/13 02:50:57;;;;;;;26.58;24.50;;;;;;;;;;5053197;28;20235;-76
2021/01/13 02:53:38;;;;;;;26.70;24.52;;;;;;;;;;5053442;28;20646;-76
2021/01/13 02:56:07;;;;;;;26.75;24.77;;;;;;;;;;5053456;28;20626;-76
2021/01/13 02:58:36;;;;;;;26.52;24.63;;;;;;;;;;5053323;28;20258;-76
2021/01/13 03:01:04;;;;;;;27.27;24.50;;;;;;;;;;5053474;28;20566;-75
2021/01/13 03:03:32;;;;;;;28.05;25.55;;;;;;;;;;5053371;28;20192;-76
2021/01/13 03:06:03;;;;;;;26.40;24.50;;;;;;;;;;5053253;28;20192;-76
2021/01/13 03:08:38;;;;;;;27.13;24.88;;;;;;;;;;5053270;28;20197;-76
2021/01/13 03:11:06;;;;;;;26.92;24.00;;;;;;;;;;5053104;28;20223;-76
2021/01/13 03:13:36;;;;;;;26.48;24.20;;;;;;;;;;5053112;28;20192;-76
2021/01/13 03:16:05;;;;;;;26.90;24.60;;;;;;;;;;5053266;28;20188;-75
2021/01/13 03:18:36;;;;;;;27.42;23.90;;;;;;;;;;5053150;28;20220;-76
2021/01/13 03:21:05;;;;;;;26.67;24.13;;;;;;;;;;5052969;28;20525;-76
2021/01/13 03:23:39;;;;;;;26.63;24.30;;;;;;;;;;5052901;28;20242;-76
2021/01/13 03:26:06;;;;;;;26.23;24.40;;;;;;;;;;5052822;28;20189;-76
2021/01/13 03:28:35;;;;;;;27.55;25.05;;;;;;;;;;5053435;28;20235;-76
2021/01/13 03:31:02;;;;;;;26.25;23.98;;;;;;;;;;5052754;28;20656;-76
2021/01/13 03:34:02;;;;;;;28.80;26.13;;;;;;;;;;5055620;28;20200;-76
2021/01/13 03:36:36;;;;;;;26.27;23.83;;;;;;;;;;5056645;28;20231;-76
2021/01/13 03:39:05;;;;;;;27.95;24.88;;;;;;;;;;5056296;28;20227;-76
2021/01/13 03:41:40;;;;;;;30.17;27.00;;;;;;;;;;5056203;28;20192;-76
2021/01/13 03:44:09;;;;;;;28.13;25.50;;;;;;;;;;5056085;28;20188;-76
2021/01/13 03:46:36;;;;;;;28.52;25.80;;;;;;;;;;5056441;28;20592;-76
2021/01/13 03:49:04;;;;;;;26.92;24.25;;;;;;;;;;5056049;28;20212;-76
2021/01/13 03:51:45;;;;;;;29.77;26.23;;;;;;;;;;5056045;28;20216;-76
2021/01/13 03:54:13;;;;;;;27.33;25.20;;;;;;;;;;5056049;28;20234;-76
2021/01/13 03:56:47;;;;;;;28.58;25.67;;;;;;;;;;5056215;28;20523;-76
2021/01/13 03:59:16;;;;;;;28.48;25.90;;;;;;;;;;5056607;28;20200;-76
2021/01/13 04:01:53;;;;;;;28.90;26.58;;;;;;;;;;5056085;28;20203;-76
2021/01/13 04:04:28;;;;;;;29.75;26.63;;;;;;;;;;5055794;28;20238;-76
2021/01/13 04:06:59;;;;;;;29.35;26.77;;;;;;;;;;5038066;28;20210;-76
2021/01/13 04:09:26;;;;;;;30.90;27.88;;;;;;;;;;5055082;28;20262;-76
2021/01/13 04:12:06;;;;;;;30.02;27.60;;;;;;;;;;5055613;28;20207;-76
2021/01/13 04:14:38;;;;;;;32.97;28.85;;;;;;;;;;5055302;28;20254;-76
2021/01/13 04:17:06;;;;;;;29.02;26.58;;;;;;;;;;5055664;28;20211;-76
2021/01/13 04:19:35;;;;;;;26.02;24.17;;;;;;;;;;5055808;28;20192;-76
2021/01/13 04:22:03;;;;;;;28.73;26.48;;;;;;;;;;5055564;28;20200;-76
2021/01/13 04:24:31;;;;;;;29.08;26.33;;;;;;;;;;5055781;28;20234;-76
2021/01/13 04:26:58;;;;;;;29.10;26.23;;;;;;;;;;5055410;28;20219;-76
2021/01/13 04:29:25;;;;;;;30.60;27.98;;;;;;;;;;5055554;28;20270;-76
2021/01/13 04:31:52;;;;;;;27.52;25.52;;;;;;;;;;5056073;28;20207;-76
2021/01/13 04:34:19;;;;;;;29.25;25.67;;;;;;;;;;5055583;28;20631;-76
2021/01/13 04:36:50;;;;;;;29.95;27.40;;;;;;;;;;5055279;28;20549;-76
2021/01/13 04:39:19;;;;;;;29.25;26.70;;;;;;;;;;5055513;28;20193;-76
2021/01/13 04:42:00;;;;;;;29.23;26.42;;;;;;;;;;5055223;28;20192;-76
2021/01/13 04:44:31;;;;;;;26.00;23.92;;;;;;;;;;5055231;28;20192;-76
2021/01/13 04:47:03;;;;;;;29.65;26.75;;;;;;;;;;5055288;28;20220;-76
2021/01/13 04:49:32;;;;;;;30.30;27.38;;;;;;;;;;5036999;28;20310;-75
2021/01/13 04:52:03;;;;;;;27.95;25.90;;;;;;;;;;5055275;28;20192;-76
2021/01/13 04:54:31;;;;;;;27.30;25.30;;;;;;;;;;5055218;28;20242;-76
2021/01/13 04:57:19;;;;;;;29.30;26.80;;;;;;;;;;5054847;28;20226;-76
2021/01/13 05:00:13;;;;;;;30.30;27.10;;;;;;;;;;5054995;28;20188;-76
2021/01/13 05:02:58;;;;;;;28.00;25.80;;;;;;;;;;4993822;28;20202;-76
2021/01/13 05:05:30;;;;;;;26.83;24.77;;;;;;;;;;4993366;28;20210;-76
2021/01/13 05:08:05;;;;;;;28.65;26.33;;;;;;;;;;4993854;28;20222;-76
2021/01/13 05:10:33;;;;;;;30.05;27.15;;;;;;;;;;4992970;28;20277;-76
2021/01/13 05:13:00;;;;;;;29.65;26.55;;;;;;;;;;4993403;28;20229;-76
2021/01/13 05:15:28;;;;;;;27.90;25.48;;;;;;;;;;4992909;28;20692;-76
2021/01/13 05:18:02;;;;;;;28.50;25.45;;;;;;;;;;4993104;28;20190;-76
2021/01/13 05:20:30;;;;;;;25.45;23.55;;;;;;;;;;4993075;28;20194;-76
2021/01/13 05:22:58;;;;;;;27.90;25.75;;;;;;;;;;4993089;28;20578;-76
2021/01/13 05:25:43;;;;;;;28.85;26.17;;;;;;;;;;4992960;28;20715;-76
2021/01/13 05:28:11;;;;;;;26.92;24.65;;;;;;;;;;4992982;28;20194;-76
2021/01/13 05:30:39;;;;;;;27.02;24.45;;;;;;;;;;4992856;28;20261;-76
2021/01/13 05:33:10;;;;;;;26.30;24.27;;;;;;;;;;4992887;28;20194;-76
2021/01/13 05:35:38;;;;;;;27.63;25.58;;;;;;;;;;4992809;28;20194;-76
2021/01/13 05:38:15;;;;;;;26.88;24.35;;;;;;;;;;5017127;28;20555;-76
2021/01/13 05:40:43;;;;;;;25.17;23.42;;;;;;;;;;5053937;28;20188;-76
2021/01/13 05:43:11;;;;;;;27.73;25.42;;;;;;;;;;5054178;28;20200;-76
2021/01/13 05:45:39;;;;;;;26.23;23.95;;;;;;;;;;5053886;28;20594;-76
2021/01/13 05:48:21;;;;;;;24.60;22.52;;;;;;;;;;5054634;28;20192;-76
2021/01/13 05:50:51;;;;;;;27.33;24.88;;;;;;;;;;5052220;28;20228;-76
2021/01/13 05:53:19;;;;;;;25.27;23.20;;;;;;;;;;5036272;28;20331;-77
2021/01/13 05:55:48;;;;;;;26.50;24.38;;;;;;;;;;5053608;28;20258;-76
2021/01/13 05:58:15;;;;;;;27.38;25.38;;;;;;;;;;5053739;28;20197;-76
2021/01/13 06:00:42;;;;;;;29.13;26.80;;;;;;;;;;5053585;28;20263;-76
2021/01/13 06:03:12;;;;;;;26.35;24.33;;;;;;;;;;5053743;28;20274;-76
2021/01/13 06:05:48;;;;;;;25.35;23.63;;;;;;;;;;5053627;28;20195;-76
2021/01/13 06:08:16;;;;;;;27.15;25.05;;;;;;;;;;5053707;28;20192;-76
2021/01/13 06:10:43;;;;;;;26.10;24.25;;;;;;;;;;5053596;28;20235;-76
2021/01/13 06:13:16;;;;;;;25.98;23.70;;;;;;;;;;5053756;28;20189;-76
2021/01/13 06:15:44;;;;;;;27.08;24.80;;;;;;;;;;5053354;28;20228;-76
2021/01/13 06:18:14;;;;;;;26.20;24.10;;;;;;;;;;5053744;28;20196;-76
2021/01/13 06:20:41;;;;;;;25.17;23.67;;;;;;;;;;5053519;28;20290;-76
2021/01/13 06:23:09;;;;;;;26.73;24.63;;;;;;;;;;5053541;28;20230;-76
2021/01/13 06:25:36;;;;;;;22.70;21.30;;;;;;;;;;5053672;28;20250;-76
2021/01/13 06:28:07;;;;;;;27.88;25.42;;;;;;;;;;5054072;28;20203;-76
2021/01/13 06:30:39;;;;;;;28.52;25.65;;;;;;;;;;5053587;28;20553;-76
2021/01/13 06:33:08;;;;;;;25.52;23.65;;;;;;;;;;5053261;28;20188;-76
2021/01/13 06:35:49;;;;;;;22.52;21.23;;;;;;;;;;5035782;28;20297;-76
2021/01/13 06:38:19;;;;;;;27.17;24.88;;;;;;;;;;5049962;28;20532;-75
2021/01/13 06:40:58;;;;;;;27.38;25.23;;;;;;;;;;5053221;28;20188;-75
2021/01/13 06:43:25;;;;;;;23.70;22.00;;;;;;;;;;5053117;28;20188;-76
2021/01/13 06:45:52;;;;;;;29.92;27.00;;;;;;;;;;5053244;28;20185;-76
2021/01/13 06:48:23;;;;;;;26.02;23.90;;;;;;;;;;5053245;28;20200;-76
2021/01/13 06:50:56;;;;;;;28.23;26.13;;;;;;;;;;5035523;28;20315;-76
2021/01/13 06:53:23;;;;;;;27.75;25.50;;;;;;;;;;5053683;28;20214;-76
2021/01/13 06:55:50;;;;;;;26.92;24.92;;;;;;;;;;5053054;28;20192;-76
2021/01/13 06:58:17;;;;;;;27.70;25.30;;;;;;;;;;5052622;28;20193;-82
2021/01/13 07:00:44;;;;;;;26.13;23.88;;;;;;;;;;5052992;28;20201;-79
2021/01/13 07:03:25;;;;;;;27.85;25.85;;;;;;;;;;5053323;28;20204;-81
2021/01/13 07:05:52;;;;;;;26.45;24.55;;;;;;;;;;5052764;28;20191;-81
2021/01/13 07:08:19;;;;;;;27.40;25.45;;;;;;;;;;5055941;28;20196;-81
2021/01/13 07:10:46;;;;;;;26.27;24.48;;;;;;;;;;5057010;28;20581;-81
2021/01/13 07:13:15;;;;;;;26.17;24.42;;;;;;;;;;5056939;28;20227;-82
2021/01/13 07:15:42;;;;;;;25.73;24.33;;;;;;;;;;5056694;28;20232;-81
2021/01/13 07:18:09;;;;;;;31.83;29.23;;;;;;;;;;5057376;28;20237;-82
2021/01/13 07:20:43;;;;;;;33.08;30.20;;;;;;;;;;5057066;28;20254;-81
2021/01/13 07:23:10;;;;;;;32.22;29.38;;;;;;;;;;5057191;28;20550;-78
2021/01/13 07:25:46;;;;;;;33.30;29.85;;;;;;;;;;5056353;28;20184;-78
2021/01/13 07:28:14;;;;;;;35.42;32.70;;;;;;;;;;5038815;28;20283;-78
2021/01/13 07:30:41;;;;;;;36.97;34.47;;;;;;;;;;5056650;28;20216;-78
2021/01/13 07:33:10;;;;;;;42.50;39.08;;;;;;;;;;5056740;28;20537;-79
2021/01/13 07:35:39;;;;;;;43.95;40.28;;;;;;;;;;5056367;28;20192;-80
2021/01/13 07:38:12;;;;;;;44.22;40.30;;;;;;;;;;5056583;28;20298;-79
2021/01/13 07:40:45;;;;;;;44.25;40.65;;;;;;;;;;5056327;28;20212;-84
2021/01/13 07:43:13;;;;;;;44.60;40.45;;;;;;;;;;5056489;28;20192;-79
2021/01/13 07:45:43;;;;;;;45.00;41.65;;;;;;;;;;5056185;28;20192;-78
2021/01/13 07:48:40;;;;;;;45.50;41.85;;;;;;;;;;5056199;28;20188;-79
2021/01/13 07:51:09;;;;;;;46.78;42.50;;;;;;;;;;4997752;28;20233;-79
2021/01/13 07:53:38;;;;;;;48.15;43.70;;;;;;;;;;5014782;28;20222;-79
2021/01/13 07:56:06;;;;;;;48.78;44.50;;;;;;;;;;5014330;28;20193;-79
2021/01/13 07:58:35;;;;;;;47.50;43.92;;;;;;;;;;5014417;28;20739;-79
2021/01/13 08:01:32;;;;;;;47.85;44.15;;;;;;;;;;5014385;28;20215;-75
2021/01/13 08:04:20;;;;;;;46.78;43.38;;;;;;;;;;5014099;28;20264;-75
2021/01/13 08:06:48;;;;;;;51.92;47.75;;;;;;;;;;5014903;28;20202;-76
2021/01/13 08:09:17;;;;;;;51.15;46.97;;;;;;;;;;5013851;28;20193;-76
2021/01/13 08:12:05;;;;;;;49.72;45.50;;;;;;;;;;5013926;28;20201;-81
2021/01/13 08:15:05;;;;;;;47.78;44.75;;;;;;;;;;5013928;28;20307;-76
2021/01/13 08:17:47;;;;;;;47.42;43.60;;;;;;;;;;5013890;28;20645;-85
2021/01/13 08:20:30;;;;;;;48.10;44.60;;;;;;;;;;5013778;28;20189;-78
2021/01/13 08:22:59;;;;;;;51.50;47.22;;;;;;;;;;5012032;28;20590;-77
2021/01/13 08:25:28;;;;;;;48.67;43.90;;;;;;;;;;5039144;28;20204;-77
2021/01/13 08:27:57;;;;;;;39.28;37.08;;;;;;;;;;5055355;28;20650;-77
2021/01/13 08:30:27;;;;;;;44.13;40.72;;;;;;;;;;5055355;28;20562;-74
2021/01/13 08:32:55;;;;;;;47.60;43.65;;;;;;;;;;5055318;28;20235;-74
2021/01/13 08:35:33;;;;;;;46.25;42.20;;;;;;;;;;5055287;28;20215;-73
2021/01/13 08:38:06;;;;;;;43.20;40.10;;;;;;;;;;5055525;28;20665;-78
2021/01/13 08:40:36;;;;;;;43.90;40.70;;;;;;;;;;5055128;28;20195;-76
2021/01/13 08:43:07;;;;;;;47.45;43.05;;;;;;;;;;5055248;28;20554;-75
2021/01/13 08:45:35;;;;;;;43.33;40.03;;;;;;;;;;5045654;28;20185;-75
2021/01/13 08:48:06;;;;;;;43.15;40.13;;;;;;;;;;5017565;28;20634;-77
2021/01/13 08:50:34;;;;;;;45.28;41.50;;;;;;;;;;5034880;28;20713;-77
2021/01/13 08:53:02;;;;;;;37.42;34.92;;;;;;;;;;5035235;28;20552;-76
2021/01/13 08:55:30;;;;;;;40.42;37.08;;;;;;;;;;5034857;28;20720;-74
2021/01/13 08:58:02;;;;;;;37.55;34.65;;;;;;;;;;5034905;28;20193;-74
2021/01/13 09:00:30;;;;;;;40.63;37.40;;;;;;;;;;5034844;28;20193;-77
2021/01/13 09:03:04;;;;;;;41.50;38.10;;;;;;;;;;5035127;28;20189;-77
2021/01/13 09:05:31;;;;;;;41.50;37.97;;;;;;;;;;5034596;28;20637;-77
2021/01/13 09:07:59;;;;;;;33.85;31.95;;;;;;;;;;5034838;28;20269;-77
2021/01/13 09:10:40;;;;;;;35.53;33.05;;;;;;;;;;5034369;28;20322;-77
2021/01/13 09:13:22;;;;;;;38.33;34.85;;;;;;;;;;5034143;28;20235;-77
2021/01/13 09:15:51;;;;;;;40.63;37.38;;;;;;;;;;5034277;28;20237;-77
2021/01/13 09:18:23;;;;;;;39.70;36.05;;;;;;;;;;5034768;28;20189;-77
2021/01/13 09:20:50;;;;;;;40.20;36.45;;;;;;;;;;5034703;28;20224;-77
2021/01/13 09:23:22;;;;;;;32.20;30.20;;;;;;;;;;5034360;28;20188;-77
2021/01/13 09:25:51;;;;;;;34.47;31.17;;;;;;;;;;5034316;28;20685;-77
2021/01/13 09:28:18;;;;;;;28.70;27.02;;;;;;;;;;5034580;28;20185;-77
2021/01/13 09:30:45;;;;;;;32.33;29.42;;;;;;;;;;5033492;28;20248;-77
2021/01/13 09:33:14;;;;;;;30.02;27.42;;;;;;;;;;5034258;28;20679;-77
2021/01/13 09:35:42;;;;;;;29.98;27.42;;;;;;;;;;5035302;28;20189;-77
2021/01/13 09:38:09;;;;;;;31.20;28.65;;;;;;;;;;5034760;28;20189;-77
2021/01/13 09:40:56;;;;;;;29.33;26.80;;;;;;;;;;5034252;28;20185;-77
2021/01/13 09:43:33;;;;;;;31.65;28.92;;;;;;;;;;5034232;28;20185;-74
2021/01/13 09:46:01;;;;;;;28.10;26.08;;;;;;;;;;5034522;28;20192;-74
2021/01/13 09:48:30;;;;;;;27.63;25.00;;;;;;;;;;5034012;28;20200;-74
2021/01/13 09:51:02;;;;;;;28.42;26.15;;;;;;;;;;5033889;28;20232;-74
2021/01/13 09:53:33;;;;;;;29.48;26.83;;;;;;;;;;5033989;28;20196;-74
2021/01/13 09:56:18;;;;;;;29.10;26.58;;;;;;;;;;5034237;28;20531;-74
2021/01/13 09:58:45;;;;;;;29.75;26.95;;;;;;;;;;5033830;28;20196;-74
2021/01/13 10:01:13;;;;;;;27.38;25.23;;;;;;;;;;5034074;28;20193;-75
2021/01/13 10:03:42;;;;;;;29.52;26.65;;;;;;;;;;5034066;28;20247;-75
2021/01/13 10:06:16;;;;;;;28.88;26.77;;;;;;;;;;5033158;28;20196;-74
2021/01/13 10:08:44;;;;;;;26.60;24.65;;;;;;;;;;5033313;28;20200;-77
2021/01/13 10:11:11;;;;;;;26.70;24.55;;;;;;;;;;5033298;28;20236;-75
2021/01/13 10:13:39;;;;;;;29.48;26.50;;;;;;;;;;5032974;28;20189;-74
2021/01/13 10:16:06;;;;;;;24.73;23.02;;;;;;;;;;5033491;28;20192;-75
2021/01/13 10:18:33;;;;;;;25.52;23.90;;;;;;;;;;5033149;28;20642;-74
2021/01/13 10:21:01;;;;;;;27.52;25.63;;;;;;;;;;5033441;28;20193;-75
2021/01/13 10:23:29;;;;;;;28.20;25.92;;;;;;;;;;5033889;28;20211;-76
2021/01/13 10:26:03;;;;;;;25.63;23.23;;;;;;;;;;5033813;28;20197;-74
2021/01/13 10:28:30;;;;;;;28.33;25.80;;;;;;;;;;5033765;28;20268;-75
2021/01/13 10:30:57;;;;;;;26.33;24.10;;;;;;;;;;5033360;28;20572;-75
2021/01/13 10:33:41;;;;;;;25.80;23.88;;;;;;;;;;5033778;28;20221;-75
2021/01/13 10:36:10;;;;;;;26.17;24.15;;;;;;;;;;5033743;28;20196;-75
2021/01/13 10:38:39;;;;;;;27.75;25.25;;;;;;;;;;5032190;28;20200;-75
2021/01/13 10:41:06;;;;;;;25.98;24.08;;;;;;;;;;5034404;28;20189;-75
2021/01/13 10:43:34;;;;;;;24.92;23.30;;;;;;;;;;5036614;28;20188;-75
2021/01/13 10:46:02;;;;;;;26.92;24.60;;;;;;;;;;5037783;28;20243;-78
2021/01/13 10:48:29;;;;;;;25.58;23.70;;;;;;;;;;5037307;28;20195;-79
2021/01/13 10:50:59;;;;;;;24.67;22.95;;;;;;;;;;5037272;28;20282;-74
2021/01/13 10:53:30;;;;;;;24.48;22.75;;;;;;;;;;5037652;28;20551;-78
2021/01/13 10:56:00;;;;;;;23.85;22.15;;;;;;;;;;5037521;28;20274;-74
2021/01/13 10:58:28;;;;;;;24.98;23.17;;;;;;;;;;5036823;28;20185;-74
2021/01/13 11:01:05;;;;;;;23.45;21.98;;;;;;;;;;5037370;28;20247;-75
2021/01/13 11:03:33;;;;;;;28.88;23.40;;;;;;;;;;5037075;28;20185;-74
2021/01/13 11:06:01;;;;;;;23.92;22.23;;;;;;;;;;5036777;28;20189;-74
2021/01/13 11:08:29;;;;;;;24.88;22.65;;;;;;;;;;5037766;28;20189;-74
2021/01/13 11:11:06;;;;;;;23.50;21.80;;;;;;;;;;5036255;28;20240;-80
2021/01/13 11:13:44;;;;;;;25.65;22.30;;;;;;;;;;5036970;28;20208;-81
2021/01/13 11:16:11;;;;;;;24.80;22.75;;;;;;;;;;5036958;28;20242;-78
2021/01/13 11:18:38;;;;;;;23.13;21.40;;;;;;;;;;5036394;28;20202;-79
2021/01/13 11:21:08;;;;;;;24.17;22.25;;;;;;;;;;5036991;28;20189;-80
2021/01/13 11:23:42;;;;;;;22.88;20.98;;;;;;;;;;5036685;28;20194;-79
2021/01/13 11:26:10;;;;;;;24.85;22.85;;;;;;;;;;5036002;28;20196;-78
2021/01/13 11:28:39;;;;;;;25.23;23.23;;;;;;;;;;5036814;28;20224;-78
2021/01/13 11:31:06;;;;;;;25.90;23.88;;;;;;;;;;5037052;28;20216;-79
2021/01/13 11:33:33;;;;;;;26.73;24.15;;;;;;;;;;5036743;28;20677;-78
2021/01/13 11:36:00;;;;;;;24.40;22.42;;;;;;;;;;5036819;28;20197;-78
2021/01/13 11:38:43;;;;;;;26.80;24.70;;;;;;;;;;5036752;28;20193;-78
2021/01/13 11:41:27;;;;;;;25.65;23.58;;;;;;;;;;5036630;28;20201;-79
2021/01/13 11:44:07;;;;;;;24.08;22.48;;;;;;;;;;5035717;28;20205;-78
2021/01/13 11:46:37;;;;;;;29.50;26.83;;;;;;;;;;5036612;28;20224;-79
2021/01/13 11:49:10;;;;;;;25.30;22.85;;;;;;;;;;5036626;28;20298;-78
2021/01/13 11:51:39;;;;;;;25.63;23.85;;;;;;;;;;5036387;28;20217;-78
2021/01/13 11:54:06;;;;;;;23.10;21.60;;;;;;;;;;5018006;28;20251;-79
2021/01/13 11:56:33;;;;;;;25.45;23.50;;;;;;;;;;5036380;28;20228;-78
2021/01/13 11:59:01;;;;;;;25.48;23.50;;;;;;;;;;5036004;28;20208;-78
2021/01/13 12:01:29;;;;;;;23.95;22.17;;;;;;;;;;5036409;28;20201;-78
2021/01/13 12:04:03;;;;;;;26.30;24.50;;;;;;;;;;5036007;28;20193;-78
2021/01/13 12:06:30;;;;;;;23.95;22.27;;;;;;;;;;5036289;28;20192;-77
2021/01/13 12:08:57;;;;;;;27.60;25.15;;;;;;;;;;5036093;28;20221;-78
2021/01/13 12:11:25;;;;;;;24.33;22.60;;;;;;;;;;5018169;28;20630;-78
2021/01/13 12:13:53;;;;;;;25.17;23.27;;;;;;;;;;5035382;28;20682;-78
2021/01/13 12:16:22;;;;;;;24.73;22.42;;;;;;;;;;5036085;28;20199;-79
2021/01/13 12:18:50;;;;;;;28.00;25.35;;;;;;;;;;5036026;28;20188;-78
2021/01/13 12:21:24;;;;;;;26.40;24.33;;;;;;;;;;5036040;28;20193;-78
2021/01/13 12:23:51;;;;;;;29.15;26.67;;;;;;;;;;5035825;28;20283;-79
2021/01/13 12:26:19;;;;;;;25.35;22.90;;;;;;;;;;5035326;28;20247;-78
2021/01/13 12:28:47;;;;;;;28.70;26.25;;;;;;;;;;5035398;28;20235;-78
2021/01/13 12:31:14;;;;;;;28.50;25.67;;;;;;;;;;5051585;28;20270;-78
2021/01/13 12:33:50;;;;;;;26.65;24.38;;;;;;;;;;5037506;28;20234;-78
2021/01/13 12:36:18;;;;;;;24.25;22.55;;;;;;;;;;5055278;28;20245;-79
2021/01/13 12:38:46;;;;;;;28.80;26.23;;;;;;;;;;5055127;28;20561;-78
2021/01/13 12:41:19;;;;;;;24.67;22.75;;;;;;;;;;5055270;28;20195;-78
2021/01/13 12:43:46;;;;;;;23.02;21.63;;;;;;;;;;5055069;28;20204;-79
2021/01/13 12:46:13;;;;;;;23.85;22.27;;;;;;;;;;5055558;28;20283;-81
2021/01/13 12:48:40;;;;;;;29.23;24.67;;;;;;;;;;5031905;28;20651;-79
2021/01/13 12:51:08;;;;;;;24.50;22.70;;;;;;;;;;5034832;28;20731;-79
2021/01/13 12:53:35;;;;;;;23.17;21.58;;;;;;;;;;5017038;28;20193;-77
2021/01/13 12:56:02;;;;;;;25.13;23.25;;;;;;;;;;5015193;28;20225;-81
2021/01/13 12:58:29;;;;;;;24.40;22.30;;;;;;;;;;5015615;28;20208;-76
2021/01/13 13:00:56;;;;;;;27.35;25.25;;;;;;;;;;5015400;28;20215;-75
2021/01/13 13:03:23;;;;;;;26.02;23.58;;;;;;;;;;5015050;28;20196;-75
2021/01/13 13:05:50;;;;;;;25.08;23.17;;;;;;;;;;5013979;28;20504;-75
2021/01/13 13:08:18;;;;;;;24.35;22.73;;;;;;;;;;5014968;28;20194;-75
2021/01/13 13:10:45;;;;;;;24.38;22.83;;;;;;;;;;5014666;28;20244;-75
2021/01/13 13:13:11;;;;;;;23.67;21.95;;;;;;;;;;5014964;28;20224;-76
2021/01/13 13:15:38;;;;;;;24.08;22.45;;;;;;;;;;5014687;28;20303;-75
2021/01/13 13:18:05;;;;;;;26.13;24.13;;;;;;;;;;5014804;28;20186;-75
2021/01/13 13:20:32;;;;;;;25.48;23.85;;;;;;;;;;5014992;28;20198;-76
2021/01/13 13:22:59;;;;;;;32.17;26.05;;;;;;;;;;5014883;28;20210;-76
2021/01/13 13:25:27;;;;;;;25.50;23.42;;;;;;;;;;5015009;28;20248;-75
2021/01/13 13:27:54;;;;;;;24.25;22.73;;;;;;;;;;5014943;28;20558;-76
2021/01/13 13:30:21;;;;;;;26.38;23.95;;;;;;;;;;5014726;28;20224;-76
2021/01/13 13:32:48;;;;;;;23.45;21.75;;;;;;;;;;5014514;28;20193;-76
2021/01/13 13:35:15;;;;;;;25.95;23.70;;;;;;;;;;5014771;28;20554;-76
2021/01/13 13:37:41;;;;;;;27.05;24.65;;;;;;;;;;5014601;28;20204;-76
2021/01/13 13:40:10;;;;;;;24.08;22.38;;;;;;;;;;5014461;28;20631;-75
2021/01/13 13:42:38;;;;;;;24.30;22.60;;;;;;;;;;5021426;28;20207;-76
2021/01/13 13:45:06;;;;;;;23.15;21.65;;;;;;;;;;5034436;28;20635;-77
2021/01/13 13:47:34;;;;;;;23.77;22.08;;;;;;;;;;5034037;28;20192;-79
2021/01/13 13:50:01;;;;;;;25.80;23.50;;;;;;;;;;5033927;28;20221;-82
2021/01/13 13:52:28;;;;;;;26.10;23.92;;;;;;;;;;5016463;28;20247;-75
2021/01/13 13:54:55;;;;;;;23.98;22.17;;;;;;;;;;5032627;28;20682;-80
2021/01/13 13:57:22;;;;;;;25.35;23.35;;;;;;;;;;5033908;28;20227;-79
2021/01/13 13:59:50;;;;;;;26.58;24.63;;;;;;;;;;5033683;28;20204;-80
2021/01/13 14:02:17;;;;;;;28.92;26.25;;;;;;;;;;5034292;28;20190;-80
2021/01/13 14:04:44;;;;;;;27.80;25.15;;;;;;;;;;5033897;28;20191;-82
2021/01/13 14:07:14;;;;;;;29.25;26.65;;;;;;;;;;5033676;28;20190;-76
2021/01/13 14:09:40;;;;;;;24.52;22.85;;;;;;;;;;5033416;28;20317;-74
2021/01/13 14:12:08;;;;;;;27.60;25.55;;;;;;;;;;5033646;28;20188;-75
2021/01/13 14:14:35;;;;;;;30.63;27.58;;;;;;;;;;5033538;28;20255;-75
2021/01/13 14:17:02;;;;;;;31.05;28.20;;;;;;;;;;5033576;28;20193;-75
2021/01/13 14:19:29;;;;;;;28.00;25.65;;;;;;;;;;5033998;28;20199;-75
2021/01/13 14:21:56;;;;;;;28.38;26.13;;;;;;;;;;5033504;28;20200;-77
2021/01/13 14:24:23;;;;;;;30.25;27.75;;;;;;;;;;5033876;28;20193;-80
2021/01/13 14:26:50;;;;;;;31.40;28.63;;;;;;;;;;5034269;28;20201;-79
2021/01/13 14:29:17;;;;;;;30.48;27.90;;;;;;;;;;5033468;28;20635;-79
2021/01/13 14:31:44;;;;;;;29.67;27.38;;;;;;;;;;5033718;28;20223;-79